Latest Weather Observations for Scotts Peak

IDT60801

Issued at 11:05 pm EST Wednesday 30 July 2014 (issued every 30 minutes, with the page automatically refreshed every 10 minutes)

About weather observations | Map of weather stations | Latest weather observations for TAS | Other Formats
Station Details ID: 097083 Name: SCOTTS PEAK DAM Lat: -43.04 Lon: 146.27 Height: 408.0 m
Data from the previous 72 hours. | See also: Recent months at Scotts Peak
Date/Time
EST
Temp
°C
App
Temp
°C
Dew
Point
Rel
Hum
%
Delta-T
°C
Wind Press
QNH
hPa
Press
MSL
hPa
Rain
since 9 am
mm
Dir
 
Spd
km/h
Gust
km/h
Spd
kts
Gust
kts
30/11:00pm 7.9 -8.4 7.5 97 0.2 NW 83 113 45 61 - - 16.2
30/10:53pm 8.1 -7.3 7.3 95 0.4 NW 78 113 42 61 - - 16.0
30/10:50pm 8.1 -6.5 7.7 97 0.2 NW 74 93 40 50 - - 16.0
30/10:47pm 8.0 -5.7 7.6 97 0.2 NW 69 80 37 43 - - 16.0
30/10:30pm 8.2 -9.6 7.6 96 0.3 NW 91 126 49 68 - - 15.6
30/10:26pm 8.4 -12.3 7.5 94 0.4 WNW 106 126 57 68 - - 15.6
30/10:25pm 8.5 -6.5 7.7 95 0.4 NW 76 126 41 68 - - 15.4
30/10:00pm 8.1 -6.9 7.7 97 0.2 NW 76 104 41 56 - - 15.0
30/09:30pm 7.7 -8.2 7.1 96 0.3 NW 80 111 43 60 - - 14.0
30/09:05pm 8.3 -7.9 7.4 94 0.4 NW 82 120 44 65 - - 13.4
30/09:00pm 8.4 -6.2 7.6 95 0.4 NW 74 98 40 53 - - 13.2
30/08:52pm 8.9 -4.9 7.7 92 0.6 WNW 70 89 38 48 - - 13.0
30/08:50pm 8.7 -4.6 7.6 93 0.5 WNW 67 83 36 45 - - 12.8
30/08:30pm 8.8 -10.0 6.9 88 0.9 NW 95 130 51 70 - - 12.8
30/08:21pm 8.7 -12.1 7.2 90 0.7 NW 106 126 57 68 - - 12.8
30/08:19pm 8.8 -7.6 7.1 89 0.8 WNW 83 117 45 63 - - 12.8
30/08:18pm 8.7 -6.7 7.3 91 0.7 WNW 78 96 42 52 - - 12.8
30/08:00pm 8.2 -11.1 7.1 93 0.5 NW 98 122 53 66 - - 12.8
30/07:57pm 8.3 -10.9 7.4 94 0.4 WNW 98 120 53 65 - - 12.8
30/07:46pm 8.6 -5.1 8.2 97 0.2 NW 70 98 38 53 - - 12.6
30/07:35pm 8.7 -3.3 8.3 97 0.2 WNW 61 80 33 43 - - 12.2
30/07:30pm 8.7 -4.1 8.1 96 0.3 WNW 65 80 35 43 - - 12.0
30/07:00pm 8.4 -5.8 7.8 96 0.3 WNW 72 96 39 52 - - 10.8
30/06:30pm 8.1 -7.1 6.9 92 0.6 WNW 76 106 41 57 - - 9.0
30/06:24pm 8.4 -5.3 7.3 93 0.5 WNW 69 98 37 53 - - 8.6
30/06:20pm 8.4 -4.6 7.3 93 0.5 WNW 65 76 35 41 - - 8.4
30/06:00pm 8.2 -8.2 7.1 93 0.5 NW 83 119 45 64 - - 8.4
30/05:30pm 8.2 -8.1 7.1 93 0.5 NW 82 107 44 58 - - 8.2
30/05:00pm 8.4 -9.8 7.6 95 0.4 WNW 93 119 50 64 - - 8.2
30/04:30pm 8.7 -8.7 7.8 94 0.4 NW 89 111 48 60 - - 7.2
30/04:00pm 8.4 -8.7 7.5 94 0.4 WNW 87 122 47 66 - - 7.0
30/03:40pm 8.8 -9.8 7.7 93 0.5 WNW 95 120 51 65 - - 6.8
30/03:34pm 8.5 -4.3 7.9 96 0.3 WNW 65 107 35 58 - - 6.8
30/03:30pm 7.8 -4.4 7.2 96 0.3 WNW 61 87 33 47 - - 6.6
30/03:24pm 8.1 -4.1 7.2 94 0.4 W 61 87 33 47 - - 6.2
30/03:22pm 8.6 -3.5 7.8 95 0.4 WNW 61 69 33 37 - - 6.0
30/03:00pm 8.9 -6.8 7.8 93 0.5 WNW 80 117 43 63 - - 6.0
30/02:30pm 8.4 -6.2 7.5 94 0.4 NW 74 102 40 55 - - 4.6
30/02:00pm 8.6 -6.8 7.7 94 0.4 WNW 78 117 42 63 - - 3.8
30/01:44pm 8.5 -9.3 7.6 94 0.4 WNW 91 109 49 59 - - 3.6
30/01:43pm 8.6 -10.0 7.5 93 0.5 WNW 95 109 51 59 - - 3.6
30/01:30pm 8.6 -5.0 7.8 95 0.4 WNW 69 91 37 49 - - 3.4
30/01:19pm 8.4 -5.3 7.6 95 0.4 WNW 69 91 37 49 - - 3.0
30/01:14pm 8.3 -3.8 7.7 96 0.3 WNW 61 70 33 38 - - 2.4
30/01:00pm 8.3 -7.9 7.5 95 0.4 NW 82 106 44 57 - - 2.0
30/12:32pm 8.2 -8.6 7.4 95 0.4 NW 85 104 46 56 - - 1.4
30/12:30pm 8.3 -8.8 7.5 95 0.4 NW 87 104 47 56 - - 1.2
30/12:27pm 8.3 -9.6 7.5 95 0.4 NW 91 104 49 56 - - 1.2
30/12:22pm 8.4 -5.9 7.5 94 0.4 NW 72 104 39 56 - - 1.2
30/12:18pm 8.4 -4.9 7.5 94 0.4 NW 67 78 36 42 - - 1.0
30/12:00pm 8.8 -8.7 7.4 91 0.7 WNW 89 115 48 62 - - 1.0
30/11:30am 8.5 -6.9 7.6 94 0.4 NW 78 115 42 62 - - 0.8
30/11:00am 8.5 -7.6 7.6 94 0.4 NW 82 126 44 68 - - 0.6
30/10:30am 8.9 -9.3 6.2 83 1.3 NW 91 122 49 66 - - 0.6
30/10:25am 8.5 -9.6 6.3 86 1.0 NW 91 120 49 65 - - 0.6
30/10:23am 8.5 -8.0 6.1 85 1.1 NW 82 102 44 55 - - 0.6
30/10:17am 8.5 -13.1 6.1 85 1.1 NW 109 137 59 74 - - 0.6
30/10:05am 7.7 -7.9 6.6 93 0.5 NW 78 122 42 66 - - 0.4
30/10:00am 7.7 -7.5 6.5 92 0.6 NW 76 98 41 53 - - 0.4
30/09:30am 7.8 -7.1 6.4 91 0.7 NW 74 120 40 65 - - 0.2
30/09:27am 7.7 -6.8 6.3 91 0.7 NW 72 120 39 65 - - 0.2
30/09:00am 7.4 -8.3 6.2 92 0.6 NW 78 100 42 54 - - 18.0
30/08:53am 7.2 -7.4 6.1 93 0.5 NW 72 100 39 54 - - 18.0
30/08:36am 7.4 -5.2 5.5 88 0.9 NW 61 82 33 44 - - 17.8
30/08:35am 7.4 -4.8 5.5 88 0.9 NW 59 69 32 37 - - 17.8
30/08:30am 7.2 -9.7 5.2 87 0.9 WNW 83 124 45 67 - - 17.8
30/08:15am 6.7 -10.7 6.0 95 0.3 NW 87 109 47 59 - - 17.8
30/08:00am 6.4 -6.9 5.7 95 0.3 NW 65 96 35 52 - - 17.8
30/07:30am 6.9 -7.1 4.4 84 1.1 NW 67 96 36 52 - - 16.8
30/07:29am 6.9 -7.1 4.2 83 1.2 NW 67 96 36 52 - - 16.8
30/07:00am 6.7 -5.2 4.2 84 1.1 NW 56 76 30 41 - - 16.8
30/06:30am 6.7 -4.4 2.6 75 1.7 NW 50 74 27 40 - - 16.8
30/06:23am 6.4 -3.9 2.7 77 1.6 NW 46 65 25 35 - - 16.8
30/06:00am 6.1 -5.5 1.8 74 1.8 NW 52 65 28 35 - - 16.8
30/05:30am 5.8 -5.0 1.9 76 1.6 NW 48 76 26 41 - - 16.8
30/05:00am 5.4 -5.4 1.7 77 1.5 NW 48 69 26 37 - - 16.8
30/04:49am 5.6 -6.8 1.5 75 1.7 NW 56 74 30 40 - - 16.8
30/04:30am 6.0 -7.1 0.8 69 2.1 WNW 59 74 32 40 - - 16.8
30/04:00am 6.1 -8.9 0.9 69 2.1 WNW 69 98 37 53 - - 16.8
30/03:47am 6.2 -8.0 0.9 69 2.1 WNW 65 95 35 51 - - 16.8
30/03:44am 5.9 -7.5 1.4 73 1.8 WNW 61 70 33 38 - - 16.8
30/03:30am 5.7 -12.3 0.9 71 1.9 WNW 85 106 46 57 - - 16.8
30/03:00am 6.1 -12.3 0.9 69 2.1 WNW 87 120 47 65 - - 16.8
30/02:40am 5.9 -14.1 0.0 66 2.3 WNW 95 115 51 62 - - 16.8
30/02:30am 5.7 -10.6 0.5 69 2.1 WNW 76 100 41 54 - - 16.8
30/02:26am 5.4 -10.6 0.4 70 2.0 WNW 74 100 40 54 - - 16.8
30/02:24am 5.6 -9.5 0.2 68 2.1 WNW 69 83 37 45 - - 16.8
30/02:00am 5.0 -13.1 2.4 83 1.1 WNW 87 120 47 65 - - 16.8
30/01:30am 4.2 -13.5 2.7 90 0.6 WNW 85 124 46 67 - - 16.8
30/01:00am 4.9 -11.1 2.6 85 1.0 WNW 76 113 41 61 - - 16.0
30/12:58am 4.9 -11.9 2.3 83 1.1 WNW 80 113 43 61 - - 16.0
30/12:57am 4.5 -10.7 2.8 89 0.7 WNW 72 87 39 47 - - 16.0
30/12:30am 5.4 -14.5 1.9 78 1.4 WNW 96 130 52 70 - - 15.8
30/12:15am 4.4 -14.5 2.4 87 0.8 WNW 91 115 49 62 - - 15.8
30/12:00am 5.1 -17.5 3.0 86 0.9 WNW 111 145 60 78 - - 15.6
 
Date/Time
EST
Temp
°C
App
Temp
°C
Dew
Point
Rel
Hum
%
Delta-T
°C
Wind Press
QNH
hPa
Press
MSL
hPa
Rain
since 9 am
mm
Dir
 
Spd
km/h
Gust
km/h
Spd
kts
Gust
kts
29/11:59pm 5.0 -16.8 3.2 88 0.8 WNW 107 133 58 72 - - 15.6
29/11:30pm 5.0 -11.8 2.5 84 1.0 WNW 80 117 43 63 - - 15.2
29/11:24pm 4.8 -12.0 2.5 85 1.0 W 80 102 43 55 - - 15.2
29/11:11pm 4.6 -17.2 3.1 90 0.6 WNW 107 152 58 82 - - 15.2
29/11:04pm 4.2 -17.4 3.2 93 0.4 WNW 106 132 57 71 - - 15.2
29/11:03pm 4.0 -12.3 3.0 93 0.4 NW 78 126 42 68 - - 15.0
29/11:00pm 4.5 -11.4 3.3 92 0.5 NW 76 98 41 53 - - 14.8
29/10:57pm 4.5 -11.8 3.0 90 0.6 NW 78 98 42 53 - - 14.8
29/10:54pm 4.6 -11.4 2.6 87 0.8 NW 76 89 41 48 - - 14.8
29/10:33pm 3.7 -17.3 2.1 89 0.7 WNW 102 126 55 68 - - 14.8
29/10:30pm 3.4 -22.6 1.9 90 0.6 WNW 128 159 69 86 - - 14.8
29/10:26pm 3.5 -23.2 2.2 91 0.5 WNW 132 159 71 86 - - 14.8
29/10:24pm 3.8 -16.1 2.3 90 0.6 WNW 96 154 52 83 - - 14.6
29/10:18pm 3.5 -16.4 1.1 84 0.9 W 95 113 51 61 - - 14.2
29/10:00pm 7.8 -8.3 2.1 67 2.4 WNW 76 107 41 58 - - 13.4
29/09:59pm 7.5 -8.2 2.4 70 2.2 WNW 74 89 40 48 - - 13.4
29/09:30pm 7.9 -11.9 1.7 65 2.6 WNW 95 145 51 78 - - 13.4
29/09:00pm 8.2 -12.1 2.0 65 2.6 WNW 98 139 53 75 - - 13.4
29/08:49pm 7.9 -11.9 1.7 65 2.6 WNW 95 139 51 75 - - 13.4
29/08:41pm 7.8 -11.7 3.5 74 1.9 WNW 95 117 51 63 - - 13.2
29/08:30pm 7.0 -8.2 4.7 85 1.0 WNW 74 102 40 55 - - 13.2
29/08:00pm 6.0 -11.7 4.5 90 0.7 NW 87 113 47 61 - - 13.2
29/07:30pm 6.3 -14.2 3.1 80 1.4 WNW 100 150 54 81 - - 13.0
29/07:24pm 8.3 -12.4 1.9 64 2.7 WNW 100 150 54 81 - - 13.0
29/07:00pm 7.9 -12.9 3.6 74 1.9 WNW 102 124 55 67 - - 13.0
29/06:59pm 8.1 -13.5 3.4 72 2.1 WNW 106 124 57 67 - - 13.0
29/06:52pm 7.3 -9.6 4.9 85 1.1 WNW 83 124 45 67 - - 13.0
29/06:45pm 7.6 -9.4 4.7 82 1.3 WNW 83 104 45 56 - - 13.0
29/06:30pm 7.6 -14.3 4.4 80 1.4 WNW 109 133 59 72 - - 13.0
29/06:28pm 7.4 -13.9 4.9 84 1.1 WNW 106 124 57 67 - - 13.0
29/06:16pm 6.8 -9.9 6.1 95 0.3 NW 83 122 45 66 - - 13.0
29/06:00pm 6.3 -7.9 6.0 98 0.1 WNW 70 98 38 53 - - 12.8
29/05:48pm 6.4 -8.3 5.5 94 0.4 WNW 72 95 39 51 - - 12.8
29/05:46pm 6.3 -7.0 5.7 96 0.3 WNW 65 76 35 41 - - 12.8
29/05:30pm 5.7 -11.9 5.3 97 0.2 NW 87 113 47 61 - - 12.8
29/05:14pm 5.4 -13.4 5.0 97 0.2 WNW 93 128 50 69 - - 12.6
29/05:00pm 5.1 -11.6 5.0 99 0.0 WNW 82 107 44 58 - - 11.8
29/04:30pm 8.4 -9.8 7.6 95 0.4 NW 93 137 50 74 - - 8.2
29/04:00pm 8.3 -8.9 7.2 93 0.5 WNW 87 130 47 70 - - 8.0
29/03:50pm 8.6 -9.6 7.8 95 0.4 WNW 93 113 50 61 - - 8.0
29/03:49pm 8.5 -10.7 7.7 95 0.4 WNW 98 113 53 61 - - 7.8
29/03:44pm 8.7 -6.6 8.1 96 0.3 WNW 78 106 42 57 - - 7.8
29/03:43pm 8.7 -5.4 8.1 96 0.3 WNW 72 89 39 48 - - 7.8
29/03:30pm 8.8 -9.9 8.0 95 0.4 WNW 96 128 52 69 - - 7.8
29/03:22pm 8.7 -9.1 7.8 94 0.4 WNW 91 113 49 61 - - 7.8
29/03:00pm 8.5 -5.2 8.1 97 0.2 NW 70 95 38 51 - - 7.4
29/02:31pm 8.3 -4.9 8.0 98 0.1 NW 67 85 36 46 - - 7.2
29/02:30pm 8.3 -5.3 8.0 98 0.1 NW 69 85 37 46 - - 7.2
29/02:00pm 7.8 -3.6 7.7 99 0.0 NW 57 80 31 43 - - 7.0
29/01:30pm 6.8 -5.2 6.5 98 0.1 NW 59 78 32 42 - - 6.2
29/01:00pm 6.8 -6.4 6.5 98 0.1 NNW 65 85 35 46 - - 5.6
29/12:49pm 7.0 -4.6 6.7 98 0.1 NW 57 76 31 41 - - 5.6
29/12:48pm 7.0 -4.0 6.7 98 0.1 NW 54 63 29 34 - - 5.6
29/12:31pm 6.6 -8.7 6.3 98 0.1 NW 76 95 41 51 - - 5.6
29/12:30pm 6.6 -4.9 6.2 97 0.2 NW 56 91 30 49 - - 5.6
29/12:28pm 6.3 -4.1 6.0 98 0.1 NW 50 63 27 34 - - 5.4
29/12:00pm 5.7 -9.4 5.4 98 0.1 NW 74 93 40 50 - - 4.6
29/11:59am 5.5 -9.3 5.2 98 0.1 NW 72 93 39 50 - - 4.6
29/11:53am 4.8 -10.2 4.2 96 0.3 NW 72 85 39 46 - - 3.8
29/11:45am 6.0 -4.2 5.3 95 0.3 WNW 48 82 26 44 - - 2.0
29/11:43am 6.1 -2.3 5.7 97 0.2 NW 39 52 21 28 - - 1.8
29/11:30am 6.3 -7.5 5.3 93 0.5 WNW 67 87 36 47 - - 1.2
29/11:26am 6.3 -7.5 5.1 92 0.5 WNW 67 87 36 47 - - 1.2
29/11:21am 6.0 -7.8 5.1 94 0.4 WNW 67 82 36 44 - - 1.2
29/11:08am 6.1 -11.5 5.2 94 0.4 NW 87 106 47 57 - - 0.8
29/11:02am 6.4 -11.9 5.5 94 0.4 NW 91 102 49 55 - - 0.8
29/11:00am 6.5 -8.2 5.6 94 0.4 NW 72 98 39 53 - - 0.8
29/10:47am 6.1 -10.2 5.1 93 0.4 NW 80 102 43 55 - - 0.6
29/10:45am 5.9 -10.5 4.7 92 0.5 NW 80 96 43 52 - - 0.6
29/10:39am 6.5 -15.5 4.0 84 1.1 NW 109 133 59 72 - - 0.0
29/10:38am 6.3 -10.8 4.1 86 1.0 NW 83 133 45 72 - - 0.0
29/10:30am 8.0 -8.9 4.2 77 1.7 NW 82 111 44 60 - - 0.0
29/10:08am 8.6 -7.7 5.0 78 1.6 NW 80 100 43 54 - - 0.0
29/10:07am 8.7 -9.0 4.5 75 1.9 NW 87 100 47 54 - - 0.0
29/10:00am 8.4 -4.7 5.2 80 1.5 NW 63 83 34 45 - - 0.0
29/09:30am 8.4 -5.0 5.5 82 1.3 NW 65 98 35 53 - - 0.0
29/09:00am 7.7 -6.8 6.3 91 0.7 NW 72 96 39 52 - - 35.8
29/08:48am 7.8 -7.3 5.6 86 1.0 NW 74 96 40 52 - - 35.8
29/08:35am 8.1 -12.4 5.0 81 1.4 NW 102 124 55 67 - - 35.8
29/08:30am 8.3 -7.1 5.8 84 1.2 NW 76 107 41 58 - - 35.8
29/08:25am 7.7 -6.9 5.8 88 0.9 NW 72 96 39 52 - - 35.8
29/08:24am 7.9 -6.2 5.5 85 1.1 WNW 69 85 37 46 - - 35.8
29/08:10am 8.1 -10.7 6.7 91 0.7 NW 95 113 51 61 - - 35.8
29/08:08am 8.5 -11.6 7.0 90 0.7 NW 102 113 55 61 - - 35.8
29/08:00am 8.4 -5.7 8.0 97 0.2 NW 72 98 39 53 - - 35.8
29/07:52am 8.5 -6.5 7.6 94 0.4 WNW 76 98 41 53 - - 35.8
29/07:51am 8.7 -7.4 7.6 93 0.5 WNW 82 98 44 53 - - 35.8
29/07:30am 8.7 -3.3 8.3 97 0.2 NW 61 87 33 47 - - 34.8
29/07:00am 8.8 -5.7 8.2 96 0.3 NW 74 100 40 54 - - 34.4
29/06:42am 8.5 -6.4 8.2 98 0.1 NW 76 113 41 61 - - 34.4
29/06:38am 8.4 -5.7 8.3 99 0.0 NW 72 95 39 51 - - 34.4
29/06:37am 8.4 -5.1 8.3 99 0.0 NW 69 85 37 46 - - 34.4
29/06:30am 8.4 -1.5 8.3 99 0.0 NW 50 72 27 39 - - 34.4
29/06:26am 8.3 -2.4 8.2 99 0.0 NW 54 72 29 39 - - 34.0
29/06:21am 8.3 -3.7 8.2 99 0.0 NNW 61 72 33 39 - - 33.6
29/06:05am 8.3 0.1 8.2 99 0.0 NW 41 63 22 34 - - 31.6
29/06:00am 8.3 0.5 8.2 99 0.0 NW 39 44 21 24 - - 30.6
29/05:43am 8.2 -3.4 8.1 99 0.0 NNW 59 107 32 58 - - 27.6
29/05:30am 8.1 -2.6 8.0 99 0.0 NNW 54 72 29 39 - - 27.0
29/05:03am 8.0 -2.4 7.9 99 0.0 NNW 52 70 28 38 - - 24.8
29/05:00am 8.0 -3.1 7.9 99 0.0 NNW 56 70 30 38 - - 24.6
29/04:38am 8.1 -1.9 8.0 99 0.0 NNW 50 72 27 39 - - 23.6
29/04:30am 8.1 -1.1 8.0 99 0.0 NNW 46 63 25 34 - - 22.8
29/04:12am 7.9 -2.5 7.8 99 0.0 NNW 52 70 28 38 - - 21.2
29/04:00am 7.9 -3.2 7.8 99 0.0 NNW 56 70 30 38 - - 20.8
29/03:54am 8.0 -3.1 7.9 99 0.0 NNW 56 65 30 35 - - 20.6
29/03:30am 7.8 0.6 7.7 99 0.0 N 35 50 19 27 - - 19.2
29/03:11am 7.7 -0.6 7.6 99 0.0 NNW 41 59 22 32 - - 17.6
29/03:00am 7.8 -1.1 7.7 99 0.0 NNW 44 59 24 32 - - 17.0
29/02:34am 7.9 -3.2 7.8 99 0.0 NNW 56 76 30 41 - - 16.0
29/02:30am 7.8 -3.0 7.7 99 0.0 NNW 54 70 29 38 - - 16.0
29/02:00am 7.7 -2.0 7.6 99 0.0 NNW 48 70 26 38 - - 14.2
29/01:34am 7.7 -0.3 7.6 99 0.0 N 39 59 21 32 - - 13.8
29/01:30am 7.7 -0.3 7.6 99 0.0 N 39 56 21 30 - - 13.6
29/01:23am 7.6 0.0 7.5 99 0.0 NNW 37 56 20 30 - - 12.8
29/01:00am 7.4 1.1 7.3 99 0.0 N 30 39 16 21 - - 12.4
29/12:30am 7.2 0.4 7.1 99 0.0 N 32 39 17 21 - - 12.0
29/12:00am 7.1 -2.7 7.0 99 0.0 NNW 48 59 26 32 - - 11.6
 
Date/Time
EST
Temp
°C
App
Temp
°C
Dew
Point
Rel
Hum
%
Delta-T
°C
Wind Press
QNH
hPa
Press
MSL
hPa
Rain
since 9 am
mm
Dir
 
Spd
km/h
Gust
km/h
Spd
kts
Gust
kts
28/11:32pm 7.2 -1.3 6.9 98 0.1 NNW 41 61 22 33 - - 10.8
28/11:30pm 7.2 -1.3 6.9 98 0.1 NNW 41 57 22 31 - - 10.8
28/11:01pm 7.6 -1.5 6.9 95 0.3 NNW 44 67 24 36 - - 9.8
28/11:00pm 7.5 -1.4 6.8 95 0.3 NNW 43 59 23 32 - - 9.8
28/10:34pm 7.5 -3.5 6.9 96 0.3 NNW 54 72 29 39 - - 9.8
28/10:30pm 7.4 -3.2 6.8 96 0.3 NNW 52 67 28 36 - - 9.8
28/10:00pm 7.4 -3.6 6.8 96 0.3 NNW 54 72 29 39 - - 9.8
28/09:30pm 7.4 -3.9 7.1 98 0.1 NNW 56 80 30 43 - - 9.8
28/09:00pm 7.5 -4.4 7.1 97 0.2 NNW 59 80 32 43 - - 9.4
28/08:30pm 7.5 -2.3 7.2 98 0.1 NNW 48 76 26 41 - - 9.2
28/08:01pm 7.3 -1.6 6.9 97 0.2 NNW 43 61 23 33 - - 9.0
28/08:00pm 7.3 -1.8 6.9 97 0.2 NNW 44 61 24 33 - - 9.0
28/07:30pm 7.5 -3.7 7.4 99 0.0 NNW 56 69 30 37 - - 9.0
28/07:00pm 7.4 -2.3 7.3 99 0.0 NNW 48 72 26 39 - - 8.2
28/06:54pm 7.3 -1.1 7.2 99 0.0 NNW 41 63 22 34 - - 8.2
28/06:41pm 7.2 -0.2 6.9 98 0.1 N 35 41 19 22 - - 8.0
28/06:30pm 7.3 -1.6 6.9 97 0.2 NW 43 54 23 29 - - 8.0
28/06:01pm 6.7 -1.9 6.6 99 0.0 NNW 41 59 22 32 - - 8.0
28/06:00pm 6.7 -1.5 6.6 99 0.0 NNW 39 54 21 29 - - 7.8
28/05:30pm 7.1 -2.0 7.0 99 0.0 NNW 44 65 24 35 - - 5.4
28/05:26pm 7.1 -1.0 7.0 99 0.0 NNW 39 57 21 31 - - 5.0
28/05:00pm 7.1 -0.2 7.0 99 0.0 NNW 35 48 19 26 - - 4.4
28/04:30pm 7.2 -2.2 7.1 99 0.0 NNW 46 65 25 35 - - 4.2
28/04:18pm 7.1 -1.8 7.0 99 0.0 NNW 43 74 23 40 - - 4.0
28/04:11pm 7.0 0.2 6.9 99 0.0 NNW 32 50 17 27 - - 4.0
28/04:00pm 6.9 0.0 6.6 98 0.1 NNW 32 44 17 24 - - 3.4
28/03:43pm 7.1 -1.0 6.8 98 0.1 NNW 39 57 21 31 - - 2.4
28/03:30pm 7.2 -1.9 6.6 96 0.3 NNW 44 57 24 31 - - 1.2
28/03:06pm 7.6 -4.0 6.7 94 0.4 NNW 57 76 31 41 - - 0.4
28/03:00pm 7.7 -4.3 6.5 92 0.6 NNW 59 70 32 38 - - 0.2
28/02:30pm 8.9 -1.8 6.3 84 1.2 NNW 52 72 28 39 - - 0.2
28/02:06pm 8.6 -0.5 6.7 88 0.9 NW 44 69 24 37 - - 0.0
28/02:00pm 8.6 1.0 7.5 93 0.5 NW 37 46 20 25 - - 0.0
28/01:57pm 8.3 0.2 7.1 92 0.6 NW 39 46 21 25 - - 0.0
28/01:30pm 9.5 -2.2 6.0 79 1.6 NNW 57 80 31 43 - - 0.0
28/01:29pm 9.4 -2.4 5.8 78 1.7 NNW 57 80 31 43 - - 0.0
28/01:00pm 9.9 0.2 5.7 75 2.0 NW 46 63 25 34 - - 0.0
28/12:30pm 9.7 -0.5 6.8 82 1.4 NNW 50 67 27 36 - - 0.0
28/12:03pm 9.2 -2.0 6.1 81 1.5 NNW 54 72 29 39 - - 0.0
28/12:00pm 9.6 -1.2 5.8 77 1.8 NNW 52 65 28 35 - - 0.0
28/11:30am 10.7 0.8 6.8 77 1.9 NW 48 57 26 31 - - 0.0
28/11:10am 10.6 0.3 6.4 75 2.0 NNW 50 69 27 37 - - 0.0
28/11:00am 10.4 1.3 6.9 79 1.7 NNW 44 59 24 32 - - 0.0
28/10:33am 9.8 0.8 6.2 78 1.7 NW 43 65 23 35 - - 0.0
28/10:30am 10.1 2.0 7.0 81 1.5 NW 39 52 21 28 - - 0.0
28/10:16am 10.3 2.2 6.8 79 1.7 NW 39 59 21 32 - - 0.0
28/10:00am 9.3 2.5 7.6 89 0.8 NW 33 39 18 21 - - 0.0
28/09:30am 8.7 0.0 6.0 83 1.3 NW 41 59 22 32 - - 0.0
28/09:28am 8.4 -0.4 5.7 83 1.3 NW 41 59 22 32 - - 0.0
28/09:00am 8.5 -0.5 6.3 86 1.0 NW 43 57 23 31 - - 4.6
28/08:30am 8.3 -0.8 6.9 91 0.7 NW 44 65 24 35 - - 4.6
28/08:17am 8.0 -0.8 7.1 94 0.4 NW 43 61 23 33 - - 4.6
28/08:00am 7.7 -2.2 6.6 93 0.5 WNW 48 57 26 31 - - 4.2
28/07:45am 7.9 -1.0 6.7 92 0.6 NW 43 61 23 33 - - 4.2
28/07:30am 8.3 0.3 7.4 94 0.4 NNW 39 46 21 25 - - 3.8
28/07:08am 8.0 -0.1 6.9 93 0.5 NNW 39 57 21 31 - - 3.8
28/07:00am 8.2 -0.3 6.8 91 0.7 NNW 41 52 22 28 - - 3.8
28/06:32am 8.7 -1.2 4.9 77 1.7 NW 46 65 25 35 - - 3.8
28/06:30am 8.9 -1.7 4.9 76 1.8 NW 50 65 27 35 - - 3.8
28/06:00am 9.2 -1.2 4.4 72 2.2 NW 48 57 26 31 - - 3.8
28/05:30am 8.9 -2.1 5.1 77 1.7 NW 52 65 28 35 - - 3.8
28/05:02am 9.3 -1.0 6.4 82 1.4 NW 50 69 27 37 - - 3.8
28/05:00am 9.4 -0.8 6.8 84 1.2 NW 50 65 27 35 - - 3.8
28/04:55am 9.2 -0.2 7.0 86 1.1 NW 46 65 25 35 - - 3.8
28/04:54am 9.3 0.4 6.9 85 1.2 NW 43 52 23 28 - - 3.8
28/04:30am 9.7 -3.6 7.5 86 1.1 WNW 67 87 36 47 - - 3.8
28/04:14am 9.5 -4.2 8.1 91 0.7 NW 70 93 38 50 - - 3.8
28/04:13am 9.5 -3.7 8.1 91 0.7 NW 67 78 36 42 - - 3.8
28/04:11am 9.8 0.7 8.6 92 0.6 NW 46 80 25 43 - - 3.8
28/04:00am 9.3 -0.9 8.5 95 0.4 NW 52 69 28 37 - - 3.8
28/03:37am 9.2 -1.4 8.6 96 0.3 NNW 54 72 29 39 - - 3.6
28/03:30am 9.3 -2.6 8.8 97 0.3 NNW 61 74 33 40 - - 3.6
28/03:12am 9.2 -4.4 8.7 97 0.2 NNW 70 89 38 48 - - 3.6
28/03:11am 9.2 -5.5 8.7 97 0.2 NNW 76 89 41 48 - - 3.6
28/03:04am 9.1 -1.8 8.8 98 0.1 NNW 56 78 30 42 - - 3.6
28/03:00am 9.1 -1.4 8.8 98 0.1 NNW 54 69 29 37 - - 3.4
28/02:30am 8.9 -0.2 8.5 97 0.2 NNW 46 61 25 33 - - 2.8
28/02:24am 8.9 0.8 8.5 97 0.2 NNW 41 61 22 33 - - 2.8
28/02:00am 9.0 -0.2 8.1 94 0.4 NNW 46 61 25 33 - - 1.8
28/01:30am 8.8 0.6 8.0 95 0.4 NNW 41 52 22 28 - - 1.8
28/01:01am 8.7 1.6 8.1 96 0.3 NNW 35 57 19 31 - - 1.8
28/01:00am 8.7 1.6 8.1 96 0.3 NNW 35 52 19 28 - - 1.8
28/12:48am 8.7 1.6 8.1 96 0.3 NNW 35 54 19 29 - - 1.8
28/12:30am 8.5 1.1 8.2 98 0.1 N 37 52 20 28 - - 1.8
28/12:10am 8.3 1.2 8.0 98 0.1 NNW 35 54 19 29 - - 1.8
28/12:00am 8.4 1.0 8.3 99 0.0 NNW 37 52 20 28 - - 1.8
 
Date/Time
EST
Temp
°C
App
Temp
°C
Dew
Point
Rel
Hum
%
Delta-T
°C
Wind Press
QNH
hPa
Press
MSL
hPa
Rain
since 9 am
mm
Dir
 
Spd
km/h
Gust
km/h
Spd
kts
Gust
kts
27/11:30pm 8.1 1.5 7.8 98 0.1 N 32 39 17 21 - - 1.6

Other Formats:

Comma delimited format used in spreadsheet applications
http://www.bom.gov.au/fwo/IDT60801/IDT60801.95958.axf

JavaScript Object Notation format (JSON) in row-major order
http://www.bom.gov.au/fwo/IDT60801/IDT60801.95958.json